Historyczne dane pomiarowe

Dodano dane terminowe – wersja testowa.

Dane z okresu 1951-2019

Wersja bazy: 1.34 [2019-03-16, lista zmian], aktualizacja planowana na 2019-04-15

Dane meteo z obszaru Polski uzyskane na podstawie danych udostępnionych przez Instytut Meteorologii i Gospodarki Wodnej – Państwowy Instytut Badawczy.

 

Wybierz Datę:    

       

TemperaturaWilgotnośćWiatrCiśnienieOpadyŚniegCzas trwania zjawisk
 Stacja t tx tn tng RH VA  wxwx mslp ppp RRR   cm mm wxwxwxwxwxwxwx
1994-08-14 13.8 18.8 11.8 10.7 80.0- 5.3 6.3---- 0.0------------
1994-08-13 18.2 22.6 13.3 10.7 83.0- 7.0 3.7---- 0.5------------
1994-08-12 18.3 25.0 9.8 6.8 76.0- 6.7 1.0---- 0.0------------
1994-08-11 19.3 25.0 12.3 12.2 71.0- 4.3 0.7---- 0.0------------
1994-08-10 19.4 26.5 14.3 11.7 79.3- 2.3 1.0---- 0.0------------
1994-08-09 17.6 20.5 14.8 11.7 99.0-- 1.3---- 29.5------------
1994-08-08 19.3 26.0 16.9 15.2 87.5- 5.3 0.0---- 0.0------------
1994-08-07 24.5 29.0 18.9 15.8 71.3- 3.3 0.7---- 0.0------------
1994-08-06 25.7 34.1 16.9 14.7 68.3- 2.3 1.3---- 0.0------------
1994-08-05 25.2 33.6 16.9 16.8 71.5- 2.3 1.0---- 0.0------------
1994-08-04 23.9 31.0 17.9 15.8 77.5- 2.3 1.0---- 0.0------------
1994-08-03 23.5 29.0 17.9 17.3 72.8- 5.0 1.7---- 10.0------------
1994-08-02 26.8 34.1 19.9 17.8 67.3- 2.7 0.7---- 0.0------------
1994-08-01 26.7 36.1 17.4 14.7 60.8- 2.3 0.0---- 1.0------------
1994-07-31 27.6 36.1 17.9 14.7 58.3- 3.7 0.0---- 0.0------------
1994-07-30 26.9 37.1 15.9 13.7 57.5- 1.7 0.7---- 0.0------------
1994-07-29 26.4 36.1 14.8 11.7 57.0- 0.0 1.0---- 0.0------------
1994-07-28 25.6 35.1 14.8 11.2 59.3- 0.0 0.0---- 0.0------------
1994-07-27 25.7 34.6 15.9 11.7 54.5- 1.7 0.3---- 0.0------------
1994-07-26 24.4 34.1 12.8 9.7 59.8- 0.0 0.7---- 0.0------------
1994-07-25 23.8 32.5 13.3 10.7 59.8- 2.0 0.7---- 0.0------------
1994-07-24 22.9 32.0 12.3 9.7 65.8- 1.3 0.7---- 0.0------------
1994-07-23 22.3 30.0 12.3 9.7 69.3- 2.3 0.0---- 0.0------------
1994-07-22 20.3 28.0 9.8 8.7 67.3- 1.3 1.7---- 0.0------------
1994-07-21 20.2 30.0 9.8 6.8 61.3- 1.3 1.0---- 0.0------------
1994-07-20 17.8 26.5 9.8 8.2 67.8- 1.0 1.7---- 0.0------------
1994-07-19 18.4 25.0 10.8 7.8 63.3- 2.3 1.0---- 0.0------------
1994-07-18 19.8 25.5 13.8 13.7 73.8- 5.7 1.3---- 0.0------------
1994-07-17 22.1 28.0 15.9 14.7 71.0- 4.0 1.0---- 0.5------------
1994-07-16 22.3 31.5 13.8 11.2 70.0- 3.0 0.0---- 0.0------------
1994-07-15 24.1 30.0 16.9 12.7 63.5- 1.0 1.0---- 0.0------------
1994-07-14 25.3 31.5 17.4 14.7 66.5- 3.3 0.0---- 0.0------------
1994-07-13 24.3 31.0 16.4 12.7 62.3- 1.7 0.0---- 0.0------------
1994-07-12 22.6 31.0 13.8 10.7 65.5- 1.3 1.3---- 0.0------------
1994-07-11 21.5 28.5 13.8 11.7 69.0- 2.3 1.0---- 0.0------------
1994-07-10 19.1 27.0 12.8 9.7 80.0- 2.3 1.7---- 0.0------------
1994-07-09 13.9 16.0 11.8 9.7 96.5- 7.7 0.7---- 3.0------------
1994-07-08 15.8 23.3 11.8 9.2 87.8- 6.0 4.0---- 8.5------------
1994-07-07 19.6 28.0 9.8 7.8 63.5- 2.0 1.0---- 0.0------------
1994-07-06 19.5 25.8 9.8 7.8 68.5- 3.0 0.0---- 0.0------------
1994-07-05 18.8 25.0 9.8 6.8 68.5- 2.0 1.0---- 0.0------------
1994-07-04 19.4 26.0 9.8 8.7 68.8- 0.7 1.0---- 0.0------------
1994-07-03 16.5 24.6 6.8 4.8 66.5- 1.7 0.7---- 0.0------------
1994-07-02 16.8 25.0 8.8 8.7 66.3- 0.0 0.7---- 0.0------------
1994-07-01 17.9 24.1 9.8 6.8 72.5- 2.3 1.0---- 0.0------------
1994-06-30 20.3 27.4 17.4 15.2 84.0- 5.0 1.3---- 0.8------------
1994-06-29 22.9 31.0 14.8 11.7 70.8- 0.0 1.0---- 0.0------------
1994-06-28 20.4 28.0 12.8 10.7 69.3- 0.3 1.0---- 0.0------------
1994-06-27 23.0 30.8 14.8 11.7 72.0- 1.0 1.0---- 0.0------------
1994-06-26 21.3 30.0 9.3 5.3 66.3- 0.7 2.7---- 0.0------------
1994-06-25 15.1 23.1 6.8 3.8 70.8- 0.7 1.0---- 0.0------------
1994-06-24 14.0 18.6 7.8 5.8 61.5- 3.3 7.3---- 0.0------------
1994-06-23 14.6 22.0 12.8 10.2 65.0- 3.3 16.7---- 0.0------------
1994-06-22 17.3 24.1 10.8 6.8 73.0- 5.7 7.0---- 0.0------------
1994-06-21 14.8 21.5 5.8 3.3 72.5- 2.3 2.7---- 0.0------------
1994-06-20 14.9 18.0 12.3 9.7 70.8- 3.7 3.7---- 0.0------------
1994-06-19 13.7 16.0 11.8 10.7 96.0- 7.7 3.7---- 4.5------------
1994-06-18 11.6 17.0 3.4 -0.1 71.0- 5.3 2.7---- 1.5------------
1994-06-17 10.6 15.0 5.4 2.9 77.5- 5.3 5.7---- 0.0------------
1994-06-16 11.8 16.0 7.8 5.8 76.5- 6.0 6.7---- 0.3------------
556.2 ms

 

Źródłem pochodzenia danych jest Instytut Meteorologii i Gospodarki Wodnej – Państwowy Instytut Badawczy. Dane Instytutu Meteorologii i Gospodarki Wodnej – Państwowego Instytutu Badawczego zostały przetworzone.

Dane źródłowe można odnaleźć na stronie https://dane.imgw.pl